TLPC

Details ICAO TLPC (SLU)
Name Castries/George F L Charles
Region Saint Lucia
Timezone America/St_Lucia (UTC-4.0)
Plans Departing 67
Arriving 79
Stats Elevation 22 ft / 7 m (AMSL)
Location 14.019700° -60.993400°
Runways 1
Magnetic Variation 15.101° W
Sunrise 2018-10-23 09:57:31 UTC / 2018-10-23 05:57:31 Local
Sunset 2018-10-23 21:41:23 UTC / 2018-10-23 17:41:23 Local
Advertisement - Login to hide

Runways

ID Width Length Bearing (true/mag) Surface Threshold Overrun Markings Lighting
09 148 ft / 45 m 5,731 ft / 1,747 m 75.34° / 90.44° ASPHALT 400 ft / 122 m 0 ft / 0 m APP EDGE THRESHOLD
27 148 ft / 45 m 5,731 ft / 1,747 m 255.34° / 270.44° ASPHALT 925 ft / 282 m 0 ft / 0 m APP EDGE THRESHOLD

Map

Weather


0- 5 10 15 20 25 30 35+ Temperature / °C

Clouds and Precipitation
Forecast for 2018-10-24 00:00 UTC. Updated 4 hours ago

Ground ~20,000 ft ~40,000 ft Winds

METAR

TLPC 240000Z 12004KT 9999 FEW026 27/24 Q1013 NOSIG

TAF

TAF TAF TLPC 231700Z 2318/2418 09006KT 9999 SCT025 TEMPO 2318/2412 SHRA BKN017

Frequencies

Ground 121.90 MHz
Tower 118.00 MHz
Warning: Do not use this data for real-world aviation or navigation. No guarantee of current accuracy is given.